createdAt,value
2018-06-09T00:00:05.896Z,21.67
2018-06-09T00:02:33.836Z,20.00
2018-06-09T00:05:01.585Z,20.73
2018-06-09T00:07:29.466Z,22.33
2018-06-09T00:09:57.835Z,21.33
2018-06-09T00:12:25.759Z,21.97
2018-06-09T00:14:53.646Z,22.30
2018-06-09T00:17:21.563Z,22.43
2018-06-09T00:19:49.293Z,24.33
2018-06-09T00:22:17.213Z,22.83
2018-06-09T00:24:45.851Z,22.30
2018-06-09T00:27:13.695Z,26.07
2018-06-09T00:29:41.564Z,24.13
2018-06-09T00:32:09.874Z,24.93
2018-06-09T00:34:37.614Z,23.53
2018-06-09T00:37:05.588Z,24.83
2018-06-09T00:39:33.899Z,23.20
2018-06-09T00:42:01.778Z,26.00
2018-06-09T00:44:29.525Z,26.37
2018-06-09T00:46:57.381Z,24.50
2018-06-09T00:49:25.165Z,24.07
2018-06-09T00:51:53.007Z,25.87
2018-06-09T00:54:20.895Z,27.90
2018-06-09T00:56:48.669Z,27.73
2018-06-09T00:59:16.640Z,27.13
2018-06-09T01:01:44.705Z,25.20
2018-06-09T01:04:13.178Z,27.43
2018-06-09T01:06:41.056Z,28.37
2018-06-09T01:09:09.033Z,27.90
2018-06-09T01:11:36.934Z,28.03
2018-06-09T01:14:05.437Z,26.87
2018-06-09T01:16:33.291Z,27.33
2018-06-09T01:19:01.612Z,28.30
2018-06-09T01:21:29.484Z,27.50
2018-06-09T01:26:36.705Z,26.47
2018-06-09T01:29:04.619Z,28.47
2018-06-09T01:31:32.569Z,25.47
2018-06-09T01:34:00.949Z,25.50
2018-06-09T01:36:28.879Z,25.90
2018-06-09T01:38:56.872Z,25.87
2018-06-09T01:41:24.868Z,27.53
2018-06-09T01:43:52.783Z,26.13
2018-06-09T01:46:20.519Z,24.50
2018-06-09T01:48:48.560Z,23.23
2018-06-09T01:51:16.426Z,23.53
2018-06-09T01:53:44.699Z,23.90
2018-06-09T01:56:12.574Z,23.27
2018-06-09T01:58:40.479Z,23.60
2018-06-09T02:01:08.371Z,22.57
2018-06-09T02:03:36.270Z,22.33
2018-06-09T02:06:04.191Z,22.17
2018-06-09T02:08:31.939Z,20.73
2018-06-09T02:11:00.404Z,20.20
2018-06-09T02:13:28.274Z,19.27
2018-06-09T02:15:56.797Z,22.10
2018-06-09T02:18:24.697Z,21.47
2018-06-09T02:20:52.542Z,21.83
2018-06-09T02:23:20.460Z,23.80
2018-06-09T02:25:48.310Z,24.00
2018-06-09T02:28:16.235Z,24.90
2018-06-09T02:30:44.143Z,24.67
2018-06-09T02:33:12.003Z,25.20
2018-06-09T02:35:39.863Z,26.47
2018-06-09T02:38:07.768Z,25.83
2018-06-09T02:40:35.677Z,26.33
2018-06-09T02:43:03.589Z,27.13
2018-06-09T02:45:31.675Z,27.90
2018-06-09T02:47:59.580Z,28.13
2018-06-09T02:50:27.459Z,29.37
2018-06-09T02:52:56.094Z,27.63
2018-06-09T02:55:23.951Z,31.33
2018-06-09T02:57:52.401Z,27.40
2018-06-09T03:00:20.424Z,27.00
2018-06-09T03:02:48.289Z,27.03
2018-06-09T03:05:16.148Z,29.97
2018-06-09T03:07:44.727Z,29.23
2018-06-09T03:10:12.563Z,28.47
2018-06-09T03:12:40.433Z,29.53
2018-06-09T03:15:08.294Z,28.90
2018-06-09T03:17:36.161Z,27.60
2018-06-09T03:20:03.934Z,29.50
2018-06-09T03:22:32.429Z,29.13
2018-06-09T03:25:00.320Z,30.20
2018-06-09T03:27:28.577Z,30.83
2018-06-09T03:29:56.416Z,31.20
2018-06-09T03:32:24.754Z,30.07
2018-06-09T03:34:52.626Z,30.53
2018-06-09T03:37:20.456Z,30.60
2018-06-09T03:39:48.304Z,33.23
2018-06-09T03:42:16.132Z,30.40
2018-06-09T03:44:43.865Z,32.77
2018-06-09T03:47:12.003Z,31.80
2018-06-09T03:49:39.883Z,29.40
2018-06-09T03:52:07.762Z,31.40
2018-06-09T03:54:35.601Z,31.20
2018-06-09T03:57:03.517Z,32.83
2018-06-09T03:59:31.564Z,33.50
2018-06-09T04:01:59.449Z,35.10
2018-06-09T04:04:27.194Z,33.63
2018-06-09T04:06:55.078Z,35.33
2018-06-09T04:09:22.810Z,35.80
2018-06-09T04:11:50.797Z,35.00
2018-06-09T04:14:18.668Z,34.90
2018-06-09T04:16:48.875Z,34.13
2018-06-09T04:19:17.011Z,34.70
2018-06-09T04:21:45.073Z,35.70
2018-06-09T04:24:12.983Z,32.67
2018-06-09T04:26:40.856Z,32.57
2018-06-09T04:29:08.723Z,33.00
2018-06-09T04:31:36.627Z,32.90
2018-06-09T04:34:04.517Z,33.67
2018-06-09T04:36:32.398Z,32.53
2018-06-09T04:39:00.650Z,30.30
2018-06-09T04:41:28.559Z,30.30
2018-06-09T04:43:56.432Z,35.07
2018-06-09T04:46:24.279Z,35.87
2018-06-09T04:48:52.189Z,33.30
2018-06-09T04:51:20.093Z,34.00
2018-06-09T04:53:47.991Z,36.00
2018-06-09T04:56:15.856Z,34.30
2018-06-09T04:58:43.701Z,33.53
2018-06-09T05:01:11.647Z,33.17
2018-06-09T05:03:39.525Z,30.20
2018-06-09T05:06:07.275Z,32.93
2018-06-09T05:08:34.999Z,31.80
2018-06-09T05:11:02.887Z,31.50
2018-06-09T05:13:30.735Z,32.73
2018-06-09T05:15:59.261Z,30.33
2018-06-09T05:18:27.012Z,31.33
2018-06-09T05:20:54.746Z,31.50
2018-06-09T05:23:22.657Z,31.30
2018-06-09T05:25:50.518Z,31.77
2018-06-09T05:28:18.251Z,30.30
2018-06-09T05:30:46.125Z,29.10
2018-06-09T05:33:13.904Z,29.57
2018-06-09T05:35:41.633Z,29.90
2018-06-09T05:38:09.752Z,29.20
2018-06-09T05:40:37.465Z,28.97
2018-06-09T05:43:05.328Z,27.43
2018-06-09T05:45:33.173Z,27.03
2018-06-09T05:48:01.065Z,25.70
2018-06-09T05:50:28.943Z,25.40
2018-06-09T05:52:56.800Z,26.73
2018-06-09T05:55:24.632Z,23.47
2018-06-09T05:57:52.364Z,22.17
2018-06-09T06:00:20.314Z,22.33
2018-06-09T06:02:48.445Z,21.23
2018-06-09T06:05:16.342Z,22.27
2018-06-09T06:07:44.241Z,19.67
2018-06-09T06:10:11.998Z,18.13
2018-06-09T06:12:39.885Z,20.10
2018-06-09T06:15:07.815Z,18.03
2018-06-09T06:17:35.687Z,16.70
2018-06-09T06:20:03.633Z,15.27
2018-06-09T06:22:31.517Z,10.73
2018-06-09T06:25:00.363Z,9.20
2018-06-09T06:27:28.104Z,8.17
2018-06-09T06:29:55.970Z,5.87
2018-06-09T06:32:24.070Z,5.67
2018-06-09T06:34:51.970Z,5.00
2018-06-09T06:37:19.822Z,5.53
2018-06-09T06:39:47.689Z,4.70
2018-06-09T06:42:15.598Z,4.60
2018-06-09T06:44:43.447Z,4.90
2018-06-09T06:47:11.380Z,5.17
2018-06-09T06:49:39.291Z,5.80
2018-06-09T06:52:07.176Z,4.50
2018-06-09T06:54:35.054Z,5.37
2018-06-09T06:57:02.810Z,4.77
2018-06-09T06:59:30.670Z,5.27
2018-06-09T07:01:58.576Z,4.50
2018-06-09T07:04:26.609Z,4.17
2018-06-09T07:06:54.459Z,4.63
2018-06-09T07:09:22.304Z,5.33
2018-06-09T07:11:50.149Z,5.00
2018-06-09T07:14:19.544Z,6.43
2018-06-09T07:16:47.457Z,5.07
2018-06-09T07:19:15.282Z,4.60
2018-06-09T07:21:43.844Z,5.30
2018-06-09T07:24:12.020Z,5.07
2018-06-09T07:26:39.741Z,5.07
2018-06-09T07:29:07.608Z,4.37
2018-06-09T07:31:35.712Z,5.23
2018-06-09T07:34:03.473Z,4.80
2018-06-09T07:36:31.376Z,5.30
2018-06-09T07:38:59.870Z,4.83
2018-06-09T07:41:27.927Z,4.07
2018-06-09T07:43:55.840Z,4.30
2018-06-09T07:46:23.764Z,3.70
2018-06-09T07:48:51.482Z,4.87
2018-06-09T07:51:19.360Z,5.13
2018-06-09T07:53:47.776Z,4.00
2018-06-09T07:56:15.690Z,4.30
2018-06-09T07:58:48.483Z,4.30
2018-06-09T08:01:16.929Z,4.43
2018-06-09T08:03:44.781Z,3.80
2018-06-09T08:06:12.680Z,4.07
2018-06-09T08:08:40.610Z,5.17
2018-06-09T08:11:08.752Z,4.77
2018-06-09T08:13:38.044Z,4.80
2018-06-09T08:16:05.946Z,4.70
2018-06-09T08:18:33.672Z,4.57
2018-06-09T08:21:01.974Z,4.70
2018-06-09T08:23:29.897Z,4.40
2018-06-09T08:25:57.766Z,4.10
2018-06-09T08:28:25.679Z,4.80
2018-06-09T08:30:53.549Z,5.03
2018-06-09T08:33:21.257Z,4.00
2018-06-09T08:35:49.103Z,4.50
2018-06-09T08:38:16.963Z,3.87
2018-06-09T08:40:45.610Z,3.83
2018-06-09T08:43:14.064Z,4.83
2018-06-09T08:45:42.282Z,4.03
2018-06-09T08:48:10.258Z,4.20
2018-06-09T08:50:38.106Z,4.47
2018-06-09T08:53:05.966Z,4.57
2018-06-09T08:55:33.806Z,4.53
2018-06-09T08:58:02.246Z,3.93
2018-06-09T09:00:30.108Z,4.00
2018-06-09T09:02:57.829Z,3.73
2018-06-09T09:05:25.657Z,4.30
2018-06-09T09:07:53.563Z,3.60
2018-06-09T09:10:21.779Z,4.50
2018-06-09T09:12:49.669Z,3.77
2018-06-09T09:15:17.754Z,3.90
2018-06-09T09:17:46.313Z,3.90
2018-06-09T09:20:14.029Z,4.00
2018-06-09T09:22:41.885Z,4.67
2018-06-09T09:25:09.750Z,3.90
2018-06-09T09:27:37.590Z,4.07
2018-06-09T09:30:05.475Z,4.00
2018-06-09T09:32:33.516Z,4.27
2018-06-09T09:35:01.383Z,3.80
2018-06-09T09:37:29.119Z,3.70
2018-06-09T09:39:56.891Z,3.70
2018-06-09T09:42:24.791Z,3.23
2018-06-09T09:44:52.667Z,4.27
2018-06-09T09:47:20.512Z,3.23
2018-06-09T09:49:48.343Z,3.43
2018-06-09T09:52:16.212Z,4.60
2018-06-09T09:54:44.639Z,4.10
2018-06-09T09:57:12.530Z,3.57
2018-06-09T09:59:40.397Z,3.57
2018-06-09T10:02:09.014Z,4.13
2018-06-09T10:04:36.984Z,4.23
2018-06-09T10:07:05.123Z,3.50
2018-06-09T10:09:32.958Z,4.27
2018-06-09T10:12:00.689Z,3.30
2018-06-09T10:14:28.636Z,3.40
2018-06-09T10:16:56.466Z,3.43
2018-06-09T10:19:24.312Z,3.30
2018-06-09T10:21:52.124Z,4.13
2018-06-09T10:24:19.951Z,3.70
2018-06-09T10:26:47.828Z,3.53
2018-06-09T10:29:15.730Z,3.40
2018-06-09T10:31:43.804Z,4.50
2018-06-09T10:34:11.619Z,4.30
2018-06-09T10:36:39.353Z,3.70
2018-06-09T10:39:08.142Z,4.60
2018-06-09T10:41:36.837Z,4.07
2018-06-09T10:44:04.697Z,4.27
2018-06-09T10:46:32.578Z,4.40
2018-06-09T10:49:00.304Z,4.40
2018-06-09T10:51:28.184Z,3.80
2018-06-09T10:53:56.276Z,4.20
2018-06-09T10:56:24.105Z,3.90
2018-06-09T10:58:51.927Z,5.50
2018-06-09T11:01:19.642Z,4.00
2018-06-09T11:03:48.415Z,2.90
2018-06-09T11:06:16.508Z,4.53
2018-06-09T11:08:44.402Z,3.87
2018-06-09T11:11:12.149Z,2.90
2018-06-09T11:13:39.973Z,3.30
2018-06-09T11:16:07.808Z,3.47
2018-06-09T11:18:35.551Z,3.87
2018-06-09T11:21:03.438Z,3.43
2018-06-09T11:23:31.524Z,3.63
2018-06-09T11:25:59.532Z,4.10
2018-06-09T11:28:27.443Z,3.90
2018-06-09T11:30:55.333Z,3.40
2018-06-09T11:33:23.033Z,3.80
2018-06-09T11:35:51.465Z,3.00
2018-06-09T11:38:19.307Z,3.97
2018-06-09T11:40:47.164Z,3.50
2018-06-09T11:43:15.027Z,4.07
2018-06-09T11:45:42.890Z,3.40
2018-06-09T11:48:10.950Z,3.70
2018-06-09T11:50:39.851Z,3.13
2018-06-09T11:53:07.711Z,3.57
2018-06-09T11:55:35.579Z,2.50
2018-06-09T11:58:03.598Z,4.13
2018-06-09T12:00:31.665Z,3.40
2018-06-09T12:02:59.407Z,4.27
2018-06-09T12:05:27.298Z,4.00
2018-06-09T12:07:55.041Z,3.40
2018-06-09T12:10:22.939Z,2.73
2018-06-09T12:12:50.743Z,2.87
2018-06-09T12:15:18.838Z,4.13
2018-06-09T12:17:46.749Z,3.13
2018-06-09T12:20:14.655Z,3.40
2018-06-09T12:22:43.052Z,3.00
2018-06-09T12:25:10.913Z,3.60
2018-06-09T12:27:38.805Z,3.37
2018-06-09T12:30:06.645Z,3.30
2018-06-09T12:32:34.819Z,4.03
2018-06-09T12:35:02.727Z,3.20
2018-06-09T12:37:30.455Z,3.90
2018-06-09T12:39:58.302Z,4.20
2018-06-09T12:42:26.145Z,4.13
2018-06-09T12:44:54.015Z,3.73
2018-06-09T12:47:22.142Z,3.50
2018-06-09T12:49:50.019Z,3.77
2018-06-09T12:52:18.197Z,3.53
2018-06-09T12:54:46.091Z,3.60
2018-06-09T12:57:13.823Z,3.87
2018-06-09T12:59:41.704Z,3.33
2018-06-09T13:02:09.438Z,2.97
2018-06-09T13:04:37.334Z,3.53
2018-06-09T13:07:05.429Z,3.90
2018-06-09T13:09:33.325Z,4.20
2018-06-09T13:12:01.165Z,4.27
2018-06-09T13:14:28.884Z,3.63
2018-06-09T13:16:56.743Z,4.10
2018-06-09T13:19:24.635Z,3.50
2018-06-09T13:21:52.692Z,4.63
2018-06-09T13:24:20.890Z,4.27
2018-06-09T13:26:48.740Z,3.87
2018-06-09T13:29:16.566Z,3.47
2018-06-09T13:31:44.404Z,3.67
2018-06-09T13:34:12.266Z,3.63
2018-06-09T13:36:40.118Z,4.80
2018-06-09T13:39:08.655Z,4.73
2018-06-09T13:41:36.529Z,4.07
2018-06-09T13:44:04.452Z,3.53
2018-06-09T13:46:32.334Z,4.13
2018-06-09T13:49:00.104Z,4.20
2018-06-09T13:51:28.011Z,4.00
2018-06-09T13:53:55.900Z,3.77
2018-06-09T13:56:24.069Z,4.07
2018-06-09T13:58:51.843Z,3.93
2018-06-09T14:01:19.763Z,3.80
2018-06-09T14:03:47.593Z,4.07
2018-06-09T14:06:15.532Z,3.80
2018-06-09T14:08:43.658Z,4.20
2018-06-09T14:11:11.518Z,3.50
2018-06-09T14:13:39.954Z,3.93
2018-06-09T14:16:07.798Z,3.50
2018-06-09T14:18:35.914Z,3.27
2018-06-09T14:21:03.782Z,4.20
2018-06-09T14:23:31.637Z,4.03
2018-06-09T14:25:59.361Z,3.70
2018-06-09T14:28:27.448Z,3.70
2018-06-09T14:30:55.731Z,3.10
2018-06-09T14:33:23.804Z,4.00
2018-06-09T14:35:51.661Z,4.13
2018-06-09T14:38:19.549Z,3.90
2018-06-09T14:40:47.404Z,3.90
2018-06-09T14:43:15.346Z,3.17
2018-06-09T14:45:43.222Z,4.17
2018-06-09T14:48:12.064Z,4.50
2018-06-09T14:50:40.127Z,3.93
2018-06-09T14:53:08.429Z,3.80
2018-06-09T14:55:36.325Z,4.67
2018-06-09T14:58:04.218Z,3.67
2018-06-09T15:00:32.265Z,4.33
2018-06-09T15:03:00.110Z,3.47
2018-06-09T15:05:28.259Z,3.57
2018-06-09T15:07:56.141Z,7.10
2018-06-09T15:10:24.013Z,5.13
2018-06-09T15:12:51.886Z,4.90
2018-06-09T15:15:19.774Z,3.60
2018-06-09T15:17:47.982Z,3.63
2018-06-09T15:20:15.872Z,3.63
2018-06-09T15:22:43.735Z,3.47
2018-06-09T15:25:11.475Z,3.40
2018-06-09T15:27:39.389Z,2.87
2018-06-09T15:30:07.416Z,4.03
2018-06-09T15:32:36.125Z,3.57
2018-06-09T15:35:04.034Z,3.40
2018-06-09T15:37:31.932Z,3.70
2018-06-09T15:39:59.789Z,4.00
2018-06-09T15:42:27.970Z,3.70
2018-06-09T15:44:55.818Z,4.00
2018-06-09T15:47:23.641Z,3.50
2018-06-09T15:49:52.339Z,4.33
2018-06-09T15:52:20.430Z,3.20
2018-06-09T15:54:48.341Z,3.30
2018-06-09T15:57:16.219Z,3.40
2018-06-09T15:59:43.966Z,3.90
2018-06-09T16:02:12.348Z,3.73
2018-06-09T16:04:40.188Z,4.30
2018-06-09T16:07:08.340Z,3.50
2018-06-09T16:09:36.229Z,3.37
2018-06-09T16:12:04.478Z,3.80
2018-06-09T16:14:33.900Z,4.00
2018-06-09T16:17:01.922Z,3.63
2018-06-09T16:19:29.766Z,3.40
2018-06-09T16:21:57.948Z,4.13
2018-06-09T16:24:25.817Z,4.40
2018-06-09T16:26:53.693Z,3.30
2018-06-09T16:29:23.288Z,5.00
2018-06-09T16:31:52.208Z,3.13
2018-06-09T16:34:20.287Z,3.13
2018-06-09T16:36:48.179Z,3.83
2018-06-09T16:39:16.006Z,3.63
2018-06-09T16:41:43.726Z,3.70
2018-06-09T16:44:11.632Z,3.50
2018-06-09T16:46:39.904Z,3.53
2018-06-09T16:49:07.669Z,3.47
2018-06-09T16:51:35.551Z,3.50
2018-06-09T16:54:03.337Z,3.20
2018-06-09T16:56:31.852Z,4.53
2018-06-09T16:59:00.271Z,3.83
2018-06-09T17:01:28.113Z,3.77
2018-06-09T17:03:55.970Z,4.20
2018-06-09T17:06:23.791Z,3.90
2018-06-09T17:08:51.667Z,3.93
2018-06-09T17:11:19.564Z,4.30
2018-06-09T17:13:47.421Z,4.37
2018-06-09T17:16:15.504Z,4.30
2018-06-09T17:18:44.011Z,4.07
2018-06-09T17:21:11.893Z,3.43
2018-06-09T17:23:40.024Z,3.90
2018-06-09T17:26:07.916Z,11.40
2018-06-09T17:28:35.786Z,96.30
2018-06-09T17:31:03.635Z,9.07
2018-06-09T17:33:31.575Z,6.40
2018-06-09T17:35:59.467Z,5.07
2018-06-09T17:38:28.299Z,3.90
2018-06-09T17:40:56.270Z,4.00
2018-06-09T17:43:24.544Z,7.70
2018-06-09T17:45:53.134Z,5.40
2018-06-09T17:48:20.858Z,6.17
2018-06-09T17:50:48.726Z,5.67
2018-06-09T17:53:16.599Z,6.27
2018-06-09T17:55:44.795Z,5.33
2018-06-09T17:58:12.555Z,5.77
2018-06-09T18:00:40.290Z,3.83
2018-06-09T18:03:08.149Z,7.27
2018-06-09T18:05:36.126Z,4.60
2018-06-09T18:08:04.076Z,5.30
2018-06-09T18:10:31.987Z,5.93
2018-06-09T18:12:59.899Z,5.87
2018-06-09T18:15:27.749Z,6.30
2018-06-09T18:17:55.465Z,8.30
2018-06-09T18:20:23.339Z,4.63
2018-06-09T18:22:51.274Z,3.93
2018-06-09T18:25:20.106Z,4.00
2018-06-09T18:27:48.164Z,4.57
2018-06-09T18:30:16.092Z,5.20
2018-06-09T18:32:43.971Z,6.13
2018-06-09T18:35:12.530Z,5.23
2018-06-09T18:37:40.497Z,3.90
2018-06-09T18:40:08.505Z,4.00
2018-06-09T18:42:36.381Z,3.80
2018-06-09T18:45:04.346Z,3.70
2018-06-09T18:47:32.273Z,4.30
2018-06-09T18:50:00.038Z,4.40
2018-06-09T18:52:28.209Z,4.70
2018-06-09T18:54:55.942Z,4.47
2018-06-09T18:57:23.794Z,4.27
2018-06-09T18:59:51.716Z,4.10
2018-06-09T19:02:20.716Z,4.20
2018-06-09T19:04:49.642Z,4.50
2018-06-09T19:07:17.960Z,3.90
2018-06-09T19:09:45.855Z,4.00
2018-06-09T19:12:13.737Z,5.10
2018-06-09T19:14:41.764Z,4.03
2018-06-09T19:17:10.227Z,4.33
2018-06-09T19:19:38.173Z,5.10
2018-06-09T19:22:12.959Z,4.53
2018-06-09T19:24:40.803Z,4.37
2018-06-09T19:27:08.780Z,4.50
2018-06-09T19:29:36.834Z,4.80
2018-06-09T19:32:04.769Z,4.40
2018-06-09T19:34:32.875Z,5.90
2018-06-09T19:37:00.980Z,4.03
2018-06-09T19:39:28.870Z,4.07
2018-06-09T19:41:56.790Z,4.80
2018-06-09T19:44:24.640Z,4.67
2018-06-09T19:46:53.309Z,4.27
2018-06-09T19:49:21.206Z,5.03
2018-06-09T19:51:49.690Z,5.30
2018-06-09T19:54:17.762Z,5.50
2018-06-09T19:56:46.050Z,4.23
2018-06-09T19:59:13.970Z,5.00
2018-06-09T20:01:41.800Z,5.03
2018-06-09T20:04:09.565Z,5.40
2018-06-09T20:06:37.472Z,5.83
2018-06-09T20:09:07.345Z,4.40
2018-06-09T20:11:35.315Z,4.43
2018-06-09T20:14:03.676Z,5.60
2018-06-09T20:16:31.435Z,4.47
2018-06-09T20:18:59.611Z,5.60
2018-06-09T20:21:27.386Z,4.40
2018-06-09T20:23:55.307Z,4.80
2018-06-09T20:26:23.816Z,5.60
2018-06-09T20:28:52.853Z,5.80
2018-06-09T20:31:20.805Z,5.50
2018-06-09T20:33:48.742Z,6.17
2018-06-09T20:36:16.913Z,4.17
2018-06-09T20:38:45.999Z,5.47
2018-06-09T20:41:13.930Z,5.00
2018-06-09T20:43:42.848Z,5.23
2018-06-09T20:46:12.262Z,5.00
2018-06-09T20:48:40.769Z,5.10
2018-06-09T20:51:08.706Z,4.67
2018-06-09T20:53:36.824Z,4.87
2018-06-09T20:56:04.586Z,4.77
2018-06-09T20:58:40.083Z,4.73
2018-06-09T21:01:09.249Z,5.90
2018-06-09T21:03:37.860Z,10.80
2018-06-09T21:06:05.740Z,7.00
2018-06-09T21:08:33.629Z,14.53
2018-06-09T21:11:01.566Z,14.03
2018-06-09T21:13:29.475Z,18.33
2018-06-09T21:15:57.360Z,14.50
2018-06-09T21:18:25.492Z,13.47
2018-06-09T21:20:53.252Z,6.73
2018-06-09T21:23:21.145Z,6.40
2018-06-09T21:25:49.154Z,5.60
2018-06-09T21:28:22.747Z,5.80
2018-06-09T21:30:55.944Z,5.90
2018-06-09T21:33:41.529Z,5.73
2018-06-09T21:36:13.982Z,5.20
2018-06-09T21:38:47.960Z,6.10
2018-06-09T21:41:21.908Z,6.27
2018-06-09T21:43:53.959Z,5.80
2018-06-09T21:46:28.362Z,6.20
2018-06-09T21:48:56.518Z,5.13
2018-06-09T21:51:24.426Z,6.23
2018-06-09T21:53:52.309Z,4.57
2018-06-09T21:56:20.145Z,5.27
2018-06-09T21:58:47.883Z,6.50
2018-06-09T22:01:15.756Z,6.33
2018-06-09T22:03:43.703Z,6.10
2018-06-09T22:06:11.614Z,6.00
2018-06-09T22:08:39.756Z,5.43
2018-06-09T22:11:07.774Z,6.30
2018-06-09T22:13:35.677Z,6.63
2018-06-09T22:16:03.585Z,5.60
2018-06-09T22:18:31.422Z,5.73
2018-06-09T22:20:59.667Z,6.43
2018-06-09T22:23:27.553Z,5.70
2018-06-09T22:25:58.298Z,6.10
2018-06-09T22:28:26.684Z,5.70
2018-06-09T22:30:54.569Z,6.53
2018-06-09T22:33:22.721Z,5.70
2018-06-09T22:35:50.640Z,7.63
2018-06-09T22:38:18.368Z,6.00
2018-06-09T22:40:46.232Z,6.93
2018-06-09T22:43:14.088Z,7.30
2018-06-09T22:45:41.968Z,7.23
2018-06-09T22:48:09.845Z,6.80
2018-06-09T22:50:38.339Z,6.57
2018-06-09T22:53:06.381Z,5.70
2018-06-09T22:55:35.083Z,6.13
2018-06-09T22:58:03.009Z,6.70
2018-06-09T23:00:36.090Z,6.37
2018-06-09T23:03:03.985Z,6.00
2018-06-09T23:05:31.903Z,6.50
2018-06-09T23:07:59.819Z,6.40
2018-06-09T23:10:27.730Z,6.90
2018-06-09T23:12:55.483Z,5.50
2018-06-09T23:15:23.285Z,5.97
2018-06-09T23:17:51.157Z,6.63
2018-06-09T23:20:19.043Z,7.53
2018-06-09T23:22:46.930Z,6.83
2018-06-09T23:25:14.811Z,6.77
2018-06-09T23:27:42.682Z,6.13
2018-06-09T23:30:10.605Z,5.00
2018-06-09T23:32:38.467Z,5.70
2018-06-09T23:35:06.186Z,6.13
2018-06-09T23:37:34.056Z,6.67
2018-06-09T23:40:01.917Z,7.27
2018-06-09T23:42:29.809Z,6.20
2018-06-09T23:44:57.833Z,7.27
2018-06-09T23:47:26.067Z,6.83
2018-06-09T23:49:53.790Z,7.43
2018-06-09T23:52:21.815Z,7.60
2018-06-09T23:54:49.510Z,5.80
2018-06-09T23:57:17.375Z,6.00
2018-06-09T23:59:45.261Z,7.33
